createdAt,value
2018-01-01T00:00:38.722Z,99.90
2018-01-01T00:02:39.721Z,99.90
2018-01-01T00:04:40.721Z,99.90
2018-01-01T00:06:41.722Z,99.90
2018-01-01T00:08:42.702Z,99.90
2018-01-01T00:10:43.738Z,99.90
2018-01-01T00:12:44.730Z,99.90
2018-01-01T00:14:45.737Z,99.90
2018-01-01T00:16:46.753Z,99.90
2018-01-01T00:18:47.744Z,99.90
2018-01-01T00:20:48.748Z,99.90
2018-01-01T00:22:49.767Z,99.90
2018-01-01T00:24:51.532Z,99.90
2018-01-01T00:26:52.518Z,99.90
2018-01-01T00:28:53.545Z,99.90
2018-01-01T00:30:54.564Z,99.90
2018-01-01T00:32:56.297Z,99.90
2018-01-01T00:34:57.284Z,99.90
2018-01-01T00:36:58.265Z,99.90
2018-01-01T00:38:59.250Z,99.90
2018-01-01T00:41:00.298Z,99.90
2018-01-01T00:43:01.325Z,99.90
2018-01-01T00:45:02.382Z,99.90
2018-01-01T00:47:03.512Z,99.90
2018-01-01T00:49:04.505Z,99.90
2018-01-01T00:51:06.249Z,99.90
2018-01-01T00:53:07.245Z,99.90
2018-01-01T00:55:08.274Z,99.90
2018-01-01T00:57:09.326Z,99.90
2018-01-01T00:59:10.303Z,99.90
2018-01-01T01:01:11.278Z,99.90
2018-01-01T01:03:12.322Z,99.90
2018-01-01T01:05:13.314Z,99.90
2018-01-01T01:07:14.284Z,99.90
2018-01-01T01:09:15.271Z,99.90
2018-01-01T01:11:16.295Z,99.90
2018-01-01T01:13:17.404Z,99.90
2018-01-01T01:15:18.358Z,99.90
2018-01-01T01:17:19.347Z,99.90
2018-01-01T01:19:20.351Z,99.90
2018-01-01T01:21:22.026Z,99.90
2018-01-01T01:23:23.004Z,99.90
2018-01-01T01:25:24.042Z,99.90
2018-01-01T01:27:25.009Z,99.90
2018-01-01T01:29:25.999Z,99.90
2018-01-01T01:31:27.038Z,99.90
2018-01-01T01:33:28.094Z,99.90
2018-01-01T01:35:29.070Z,99.90
2018-01-01T01:37:30.018Z,99.90
2018-01-01T01:39:31.090Z,99.90
2018-01-01T01:41:32.306Z,99.90
2018-01-01T01:43:33.286Z,99.90
2018-01-01T01:45:34.361Z,99.90
2018-01-01T01:47:36.123Z,99.90
2018-01-01T01:49:37.833Z,99.90
2018-01-01T01:51:38.896Z,99.90
2018-01-01T01:53:39.865Z,99.90
2018-01-01T01:55:40.862Z,99.90
2018-01-01T01:57:41.903Z,99.90
2018-01-01T01:59:42.944Z,99.90
2018-01-01T02:01:43.979Z,99.90
2018-01-01T02:03:44.930Z,99.90
2018-01-01T02:05:46.025Z,99.90
2018-01-01T02:07:47.006Z,99.90
2018-01-01T02:09:48.778Z,99.90
2018-01-01T02:11:50.551Z,99.90
2018-01-01T02:13:51.551Z,99.90
2018-01-01T02:15:52.533Z,99.90
2018-01-01T02:17:53.680Z,99.90
2018-01-01T02:19:55.438Z,99.90
2018-01-01T02:21:56.503Z,99.90
2018-01-01T02:23:57.572Z,99.90
2018-01-01T02:25:58.531Z,99.90
2018-01-01T02:27:59.623Z,99.20
2018-01-01T02:30:00.672Z,99.90
2018-01-01T02:32:07.866Z,99.20
2018-01-01T02:34:09.645Z,99.90
2018-01-01T02:36:11.424Z,99.90
2018-01-01T02:38:12.460Z,99.90
2018-01-01T02:40:14.199Z,99.90
2018-01-01T02:42:15.188Z,99.90
2018-01-01T02:44:16.187Z,99.90
2018-01-01T02:46:17.199Z,99.80
2018-01-01T02:48:18.179Z,99.10
2018-01-01T02:50:19.172Z,99.80
2018-01-01T02:52:20.930Z,99.90
2018-01-01T02:54:21.967Z,99.90
2018-01-01T02:56:23.183Z,99.90
2018-01-01T02:58:24.187Z,99.50
2018-01-01T03:00:25.209Z,99.00
2018-01-01T03:02:26.265Z,99.00
2018-01-01T03:04:27.990Z,99.30
2018-01-01T03:06:29.053Z,99.00
2018-01-01T03:08:29.986Z,99.90
2018-01-01T03:10:31.039Z,99.10
2018-01-01T03:12:32.031Z,99.50
2018-01-01T03:14:33.792Z,99.20
2018-01-01T03:16:34.871Z,99.20
2018-01-01T03:18:35.839Z,99.70
2018-01-01T03:20:36.855Z,98.90
2018-01-01T03:22:37.850Z,98.60
2018-01-01T03:24:38.871Z,99.30
2018-01-01T03:26:39.906Z,99.90
2018-01-01T03:28:40.941Z,99.20
2018-01-01T03:30:41.979Z,99.80
2018-01-01T03:32:43.053Z,99.30
2018-01-01T03:34:44.057Z,98.90
2018-01-01T03:36:45.766Z,99.40
2018-01-01T03:38:46.791Z,99.50
2018-01-01T03:40:47.811Z,97.80
2018-01-01T03:42:48.874Z,98.80
2018-01-01T03:44:50.609Z,98.00
2018-01-01T03:46:51.710Z,98.10
2018-01-01T03:48:52.650Z,97.70
2018-01-01T03:50:53.651Z,97.70
2018-01-01T03:52:54.677Z,98.30
2018-01-01T03:54:55.697Z,98.40
2018-01-01T03:56:56.748Z,98.10
2018-01-01T03:58:57.775Z,97.90
2018-01-01T04:00:58.837Z,95.90
2018-01-01T04:02:59.822Z,97.90
2018-01-01T04:05:00.797Z,96.90
2018-01-01T04:07:02.564Z,97.40
2018-01-01T04:09:04.296Z,96.80
2018-01-01T04:11:05.356Z,96.90
2018-01-01T04:13:06.392Z,96.90
2018-01-01T04:15:07.406Z,97.50
2018-01-01T04:17:08.432Z,96.90
2018-01-01T04:19:10.178Z,96.70
2018-01-01T04:21:11.181Z,96.60
2018-01-01T04:23:12.165Z,96.20
2018-01-01T04:25:13.202Z,97.20
2018-01-01T04:27:14.177Z,96.70
2018-01-01T04:29:15.113Z,97.10
2018-01-01T04:31:16.828Z,96.30
2018-01-01T04:33:17.866Z,96.30
2018-01-01T04:35:19.632Z,97.70
2018-01-01T04:37:20.630Z,95.80
2018-01-01T04:39:21.595Z,95.80
2018-01-01T04:41:22.586Z,96.60
2018-01-01T04:43:23.666Z,96.50
2018-01-01T04:45:24.636Z,96.60
2018-01-01T04:47:26.421Z,97.90
2018-01-01T04:49:27.431Z,97.70
2018-01-01T04:51:28.437Z,97.40
2018-01-01T04:53:29.574Z,95.90
2018-01-01T04:55:30.614Z,95.20
2018-01-01T04:57:31.626Z,96.20
2018-01-01T04:59:33.358Z,96.50
2018-01-01T05:01:34.398Z,96.40
2018-01-01T05:03:35.483Z,96.40
2018-01-01T05:05:36.482Z,94.30
2018-01-01T05:07:37.507Z,95.60
2018-01-01T05:09:38.499Z,96.00
2018-01-01T05:11:39.480Z,94.10
2018-01-01T05:13:41.290Z,95.60
2018-01-01T05:15:42.317Z,95.70
2018-01-01T05:17:43.575Z,95.20
2018-01-01T05:19:44.565Z,93.10
2018-01-01T05:21:45.557Z,94.80
2018-01-01T05:23:46.507Z,93.50
2018-01-01T05:25:47.525Z,94.60
2018-01-01T05:27:49.256Z,95.80
2018-01-01T05:29:50.293Z,95.00
2018-01-01T05:31:51.428Z,92.80
2018-01-01T05:33:52.430Z,92.70
2018-01-01T05:35:53.481Z,94.50
2018-01-01T05:37:55.285Z,94.50
2018-01-01T05:39:56.307Z,94.70
2018-01-01T05:41:57.301Z,96.60
2018-01-01T05:43:58.301Z,96.30
2018-01-01T05:45:59.337Z,96.70
2018-01-01T05:48:01.084Z,95.50
2018-01-01T05:50:02.111Z,95.60
2018-01-01T05:52:03.124Z,95.90
2018-01-01T05:54:04.195Z,96.10
2018-01-01T05:56:05.181Z,95.90
2018-01-01T05:58:06.878Z,95.80
2018-01-01T06:00:07.926Z,95.90
2018-01-01T06:02:08.887Z,94.80
2018-01-01T06:04:10.009Z,95.10
2018-01-01T06:06:11.279Z,95.60
2018-01-01T06:08:12.261Z,93.90
2018-01-01T06:10:13.267Z,94.60
2018-01-01T06:12:14.269Z,95.50
2018-01-01T06:14:15.278Z,94.60
2018-01-01T06:16:16.315Z,94.00
2018-01-01T06:18:17.365Z,94.00
2018-01-01T06:20:18.384Z,96.00
2018-01-01T06:22:20.071Z,94.80
2018-01-01T06:24:21.098Z,94.70
2018-01-01T06:26:22.211Z,94.60
2018-01-01T06:28:23.217Z,95.20
2018-01-01T06:30:24.926Z,94.70
2018-01-01T06:32:25.901Z,94.70
2018-01-01T06:34:26.905Z,95.50
2018-01-01T06:36:27.880Z,95.40
2018-01-01T06:38:29.622Z,94.00
2018-01-01T06:40:30.630Z,94.10
2018-01-01T06:42:31.658Z,94.90
2018-01-01T06:44:33.706Z,96.00
2018-01-01T06:46:34.765Z,96.10
2018-01-01T06:48:36.526Z,95.70
2018-01-01T06:50:38.238Z,96.20
2018-01-01T06:52:39.173Z,96.30
2018-01-01T06:54:40.185Z,96.00
2018-01-01T06:56:41.254Z,96.40
2018-01-01T06:58:42.291Z,96.20
2018-01-01T07:00:43.253Z,96.80
2018-01-01T07:02:44.269Z,96.90
2018-01-01T07:04:45.414Z,96.70
2018-01-01T07:06:46.538Z,97.80
2018-01-01T07:08:47.606Z,97.30
2018-01-01T07:10:48.573Z,97.80
2018-01-01T07:12:50.270Z,98.40
2018-01-01T07:14:51.222Z,98.30
2018-01-01T07:16:52.292Z,98.20
2018-01-01T07:18:53.295Z,98.30
2018-01-01T07:20:54.367Z,97.50
2018-01-01T07:22:55.321Z,98.30
2018-01-01T07:24:56.379Z,98.70
2018-01-01T07:26:57.446Z,98.40
2018-01-01T07:28:59.243Z,98.80
2018-01-01T07:31:00.997Z,98.50
2018-01-01T07:33:02.748Z,98.20
2018-01-01T07:35:04.535Z,98.40
2018-01-01T07:37:05.522Z,98.40
2018-01-01T07:39:06.526Z,98.10
2018-01-01T07:41:07.531Z,98.40
2018-01-01T07:43:08.498Z,98.40
2018-01-01T07:45:10.274Z,98.30
2018-01-01T07:47:11.345Z,98.40
2018-01-01T07:49:12.427Z,98.20
2018-01-01T07:51:13.475Z,98.00
2018-01-01T07:53:14.485Z,98.60
2018-01-01T07:55:15.543Z,98.90
2018-01-01T07:57:16.635Z,98.90
2018-01-01T07:59:17.637Z,98.70
2018-01-01T08:01:18.654Z,97.90
2018-01-01T08:03:19.646Z,98.30
2018-01-01T08:05:20.691Z,98.20
2018-01-01T08:07:21.719Z,98.80
2018-01-01T08:09:22.758Z,98.70
2018-01-01T08:11:24.598Z,97.90
2018-01-01T08:13:25.608Z,97.80
2018-01-01T08:15:26.627Z,98.80
2018-01-01T08:17:27.607Z,98.90
2018-01-01T08:19:28.663Z,98.90
2018-01-01T08:21:29.651Z,99.20
2018-01-01T08:23:31.378Z,98.80
2018-01-01T08:25:32.438Z,98.80
2018-01-01T08:27:33.487Z,98.70
2018-01-01T08:29:34.621Z,98.90
2018-01-01T08:31:35.637Z,99.00
2018-01-01T08:33:36.623Z,99.90
2018-01-01T08:35:37.601Z,99.90
2018-01-01T08:37:39.354Z,99.90
2018-01-01T08:39:40.346Z,99.90
2018-01-01T08:41:41.362Z,99.90
2018-01-01T08:43:42.363Z,99.90
2018-01-01T08:45:43.386Z,99.90
2018-01-01T08:47:44.415Z,99.90
2018-01-01T08:49:46.143Z,99.90
2018-01-01T08:51:47.176Z,99.90
2018-01-01T08:53:48.160Z,99.90
2018-01-01T08:55:49.105Z,99.90
2018-01-01T08:57:50.853Z,99.90
2018-01-01T08:59:51.913Z,99.90
2018-01-01T09:01:53.850Z,99.90
2018-01-01T09:03:54.860Z,99.90
2018-01-01T09:05:55.879Z,99.90
2018-01-01T09:07:57.672Z,99.90
2018-01-01T09:09:58.698Z,99.90
2018-01-01T09:12:00.525Z,99.90
2018-01-01T09:14:01.566Z,99.90
2018-01-01T09:16:02.603Z,99.50
2018-01-01T09:18:03.612Z,97.90
2018-01-01T09:20:04.614Z,95.90
2018-01-01T09:22:05.646Z,96.50
2018-01-01T09:24:06.611Z,95.90
2018-01-01T09:26:07.570Z,95.90
2018-01-01T09:28:09.313Z,98.20
2018-01-01T09:30:10.261Z,98.00
2018-01-01T09:32:11.237Z,99.70
2018-01-01T09:34:12.929Z,99.90
2018-01-01T09:36:13.882Z,99.80
2018-01-01T09:38:14.826Z,99.90
2018-01-01T09:40:15.815Z,99.90
2018-01-01T09:42:16.773Z,99.90
2018-01-01T09:44:17.713Z,99.90
2018-01-01T09:46:18.654Z,99.90
2018-01-01T09:48:19.589Z,99.90
2018-01-01T09:50:20.578Z,99.90
2018-01-01T09:52:21.525Z,99.90
2018-01-01T09:54:22.486Z,99.90
2018-01-01T09:56:23.536Z,99.90
2018-01-01T09:58:24.517Z,99.20
2018-01-01T10:00:25.501Z,98.80
2018-01-01T10:02:27.213Z,99.90
2018-01-01T10:04:28.256Z,99.90
2018-01-01T10:06:29.363Z,99.90
2018-01-01T10:08:30.269Z,99.40
2018-01-01T10:10:31.235Z,99.00
2018-01-01T10:12:32.944Z,99.90
2018-01-01T10:14:33.904Z,99.90
2018-01-01T10:16:34.855Z,99.90
2018-01-01T10:18:35.813Z,99.90
2018-01-01T10:20:36.791Z,99.90
2018-01-01T10:22:38.489Z,99.90
2018-01-01T10:24:39.475Z,99.90
2018-01-01T10:26:40.415Z,99.90
2018-01-01T10:28:41.379Z,99.90
2018-01-01T10:30:42.347Z,99.90
2018-01-01T10:32:44.057Z,99.90
2018-01-01T10:34:45.004Z,99.90
2018-01-01T10:36:45.968Z,99.90
2018-01-01T10:38:46.963Z,99.90
2018-01-01T10:40:47.884Z,99.90
2018-01-01T10:42:49.583Z,99.90
2018-01-01T10:44:50.534Z,99.90
2018-01-01T10:46:51.485Z,99.50
2018-01-01T10:48:52.437Z,99.60
2018-01-01T10:50:53.378Z,99.90
2018-01-01T10:52:54.323Z,99.20
2018-01-01T10:54:55.263Z,99.10
2018-01-01T10:56:56.183Z,99.10
2018-01-01T10:58:57.118Z,98.50
2018-01-01T11:00:58.830Z,99.80
2018-01-01T11:02:59.810Z,99.80
2018-01-01T11:05:00.768Z,98.40
2018-01-01T11:07:02.466Z,96.80
2018-01-01T11:09:03.433Z,97.00
2018-01-01T11:11:04.371Z,96.00
2018-01-01T11:13:05.327Z,96.60
2018-01-01T11:15:06.318Z,93.30
2018-01-01T11:17:08.004Z,93.20
2018-01-01T11:19:08.940Z,93.30
2018-01-01T11:21:09.877Z,93.40
2018-01-01T11:23:11.690Z,85.90
2018-01-01T11:25:12.888Z,86.80
2018-01-01T11:27:14.624Z,84.70
2018-01-01T11:29:15.598Z,85.00
2018-01-01T11:31:17.314Z,84.80
2018-01-01T11:33:18.307Z,84.40
2018-01-01T11:35:19.283Z,75.80
2018-01-01T11:37:20.946Z,62.20
2018-01-01T11:39:21.912Z,62.50
2018-01-01T11:41:22.903Z,58.20
2018-01-01T11:43:24.660Z,60.70
2018-01-01T11:45:25.624Z,61.10
2018-01-01T11:47:27.368Z,56.80
2018-01-01T11:49:28.367Z,56.70
2018-01-01T11:51:29.322Z,54.50
2018-01-01T11:53:30.315Z,56.80
2018-01-01T11:55:32.114Z,52.30
2018-01-01T11:57:33.060Z,52.10
2018-01-01T11:59:34.048Z,54.20
2018-01-01T12:01:35.019Z,53.50
2018-01-01T12:03:36.752Z,52.00
2018-01-01T12:05:37.725Z,52.20
2018-01-01T12:07:38.737Z,53.00
2018-01-01T12:09:40.498Z,49.60
2018-01-01T12:11:41.478Z,49.00
2018-01-01T12:13:42.499Z,50.00
2018-01-01T12:15:43.431Z,51.30
2018-01-01T12:17:44.426Z,54.20
2018-01-01T12:19:47.018Z,56.80
2018-01-01T12:21:48.719Z,75.30
2018-01-01T12:23:49.770Z,75.60
2018-01-01T12:25:50.719Z,73.50
2018-01-01T12:27:51.714Z,80.80
2018-01-01T12:29:53.430Z,80.80
2018-01-01T12:31:54.365Z,81.80
2018-01-01T12:33:55.381Z,83.80
2018-01-01T12:35:56.333Z,83.30
2018-01-01T12:37:58.002Z,91.90
2018-01-01T12:39:58.936Z,91.40
2018-01-01T12:42:00.689Z,91.90
2018-01-01T12:44:02.444Z,91.70
2018-01-01T12:46:03.426Z,91.70
2018-01-01T12:48:04.411Z,92.30
2018-01-01T12:50:05.399Z,91.70
2018-01-01T12:52:07.130Z,91.30
2018-01-01T12:54:08.094Z,91.40
2018-01-01T12:56:09.068Z,88.70
2018-01-01T12:58:10.033Z,73.90
2018-01-01T13:00:10.970Z,69.80
2018-01-01T13:02:11.971Z,64.50
2018-01-01T13:04:12.913Z,65.80
2018-01-01T13:06:13.877Z,67.90
2018-01-01T13:08:15.567Z,78.80
2018-01-01T13:10:16.535Z,78.60
2018-01-01T13:12:17.591Z,82.00
2018-01-01T13:14:18.541Z,87.20
2018-01-01T13:16:19.512Z,90.80
2018-01-01T13:18:20.523Z,92.50
2018-01-01T13:20:21.422Z,94.20
2018-01-01T13:22:23.147Z,95.10
2018-01-01T13:24:24.127Z,94.40
2018-01-01T13:26:25.835Z,94.10
2018-01-01T13:28:27.518Z,93.50
2018-01-01T13:30:28.447Z,93.50
2018-01-01T13:32:29.410Z,95.60
2018-01-01T13:34:30.426Z,95.10
2018-01-01T13:36:31.333Z,94.10
2018-01-01T13:38:33.010Z,86.00
2018-01-01T13:40:33.936Z,86.10
2018-01-01T13:42:35.642Z,81.70
2018-01-01T13:44:36.587Z,82.60
2018-01-01T13:46:37.563Z,81.60
2018-01-01T13:48:38.509Z,80.90
2018-01-01T13:50:39.449Z,82.60
2018-01-01T13:52:40.498Z,82.90
2018-01-01T13:54:41.468Z,85.40
2018-01-01T13:56:42.447Z,81.10
2018-01-01T13:58:43.406Z,79.30
2018-01-01T14:00:44.375Z,75.80
2018-01-01T14:02:45.317Z,74.80
2018-01-01T14:04:46.388Z,74.60
2018-01-01T14:06:47.440Z,80.60
2018-01-01T14:08:48.698Z,84.20
2018-01-01T14:10:49.780Z,83.80
2018-01-01T14:12:50.776Z,89.70
2018-01-01T14:14:51.765Z,90.80
2018-01-01T14:16:53.550Z,91.70
2018-01-01T14:18:56.910Z,91.80
2018-01-01T14:20:57.946Z,94.60
2018-01-01T14:22:58.932Z,94.60
2018-01-01T14:25:00.170Z,94.30
2018-01-01T14:27:01.614Z,96.10
2018-01-01T14:29:02.874Z,96.40
2018-01-01T14:31:04.097Z,96.40
2018-01-01T14:33:05.141Z,97.30
2018-01-01T14:35:06.218Z,96.20
2018-01-01T14:37:07.464Z,96.50
2018-01-01T14:39:09.220Z,94.50
2018-01-01T14:41:10.260Z,94.40
2018-01-01T14:43:11.329Z,95.50
2018-01-01T14:45:12.438Z,95.60
2018-01-01T14:47:13.452Z,95.80
2018-01-01T14:49:14.407Z,94.60
2018-01-01T14:51:15.376Z,94.70
2018-01-01T14:53:16.318Z,95.90
2018-01-01T14:55:18.023Z,96.80
2018-01-01T14:57:19.004Z,96.80
2018-01-01T14:59:20.670Z,97.10
2018-01-01T15:01:21.699Z,97.60
2018-01-01T15:03:23.411Z,97.50
2018-01-01T15:05:25.107Z,98.20
2018-01-01T15:07:26.034Z,98.20
2018-01-01T15:09:27.027Z,98.10
2018-01-01T15:11:28.721Z,97.80
2018-01-01T15:15:37.538Z,97.30
2018-01-01T15:17:39.283Z,97.80
2018-01-01T15:19:40.298Z,97.80
2018-01-01T15:21:41.283Z,98.40
2018-01-01T15:23:42.445Z,98.30
2018-01-01T15:25:44.289Z,97.50
2018-01-01T15:27:45.236Z,97.50
2018-01-01T15:29:46.214Z,97.40
2018-01-01T15:31:49.192Z,98.20
2018-01-01T15:33:50.850Z,98.50
2018-01-01T15:35:52.565Z,98.40
2018-01-01T15:37:53.508Z,98.40
2018-01-01T15:39:54.442Z,98.80
2018-01-01T15:41:55.383Z,99.40
2018-01-01T15:43:57.769Z,99.90
2018-01-01T15:45:58.760Z,99.20
2018-01-01T15:47:59.756Z,98.30
2018-01-01T15:50:01.298Z,99.10
2018-01-01T15:52:02.335Z,99.30
2018-01-01T15:54:03.343Z,99.40
2018-01-01T15:56:04.314Z,98.50
2018-01-01T15:58:06.083Z,97.90
2018-01-01T16:00:07.064Z,97.90
2018-01-01T16:02:08.044Z,97.90
2018-01-01T16:04:09.034Z,98.20
2018-01-01T16:06:10.791Z,98.30
2018-01-01T16:08:12.498Z,99.10
2018-01-01T16:10:13.583Z,99.00
2018-01-01T16:12:14.569Z,99.10
2018-01-01T16:14:15.520Z,98.90
2018-01-01T16:16:16.483Z,99.10
2018-01-01T16:18:17.450Z,99.40
2018-01-01T16:20:18.459Z,99.10
2018-01-01T16:22:19.426Z,99.20
2018-01-01T16:24:20.393Z,99.20
2018-01-01T16:26:21.343Z,98.70
2018-01-01T16:28:22.285Z,98.90
2018-01-01T16:30:23.236Z,98.50
2018-01-01T16:32:24.166Z,98.60
2018-01-01T16:34:26.004Z,98.30
2018-01-01T16:36:26.952Z,98.10
2018-01-01T16:38:28.921Z,98.00
2018-01-01T16:40:29.861Z,97.50
2018-01-01T16:42:30.856Z,97.50
2018-01-01T16:44:31.818Z,97.30
2018-01-01T16:46:32.759Z,97.20
2018-01-01T16:48:33.697Z,96.80
2018-01-01T16:50:34.678Z,97.20
2018-01-01T16:52:35.673Z,97.30
2018-01-01T16:54:36.689Z,98.10
2018-01-01T16:56:37.734Z,98.70
2018-01-01T16:58:38.678Z,98.70
2018-01-01T17:00:39.654Z,98.50
2018-01-01T17:02:40.636Z,98.80
2018-01-01T17:04:41.599Z,99.10
2018-01-01T17:06:43.315Z,99.40
2018-01-01T17:08:44.275Z,99.30
2018-01-01T17:10:45.306Z,98.90
2018-01-01T17:12:46.315Z,98.40
2018-01-01T17:14:47.265Z,98.10
2018-01-01T17:16:48.200Z,98.30
2018-01-01T17:18:49.136Z,97.70
2018-01-01T17:20:50.826Z,97.40
2018-01-01T17:22:51.757Z,97.40
2018-01-01T17:24:52.716Z,97.70
2018-01-01T17:26:53.698Z,97.50
2018-01-01T17:28:54.689Z,97.30
2018-01-01T17:30:55.673Z,97.80
2018-01-01T17:32:56.638Z,97.80
2018-01-01T17:34:57.622Z,98.20
2018-01-01T17:36:59.345Z,99.30
2018-01-01T17:39:00.329Z,99.00
2018-01-01T17:41:01.298Z,99.50
2018-01-01T17:43:02.262Z,99.70
2018-01-01T17:45:03.232Z,98.90
2018-01-01T17:47:04.231Z,98.80
2018-01-01T17:49:05.191Z,99.10
2018-01-01T17:51:06.117Z,97.90
2018-01-01T17:53:07.085Z,97.40
2018-01-01T17:55:08.818Z,97.50
2018-01-01T17:57:10.521Z,97.30
2018-01-01T17:59:11.494Z,97.30
2018-01-01T18:01:12.461Z,97.40
2018-01-01T18:03:14.166Z,97.30
2018-01-01T18:05:15.147Z,97.30
2018-01-01T18:07:16.085Z,97.60
2018-01-01T18:09:17.029Z,97.60
2018-01-01T18:11:17.990Z,97.50
2018-01-01T18:13:18.974Z,97.90
2018-01-01T18:15:19.925Z,97.70
2018-01-01T18:17:20.865Z,98.20
2018-01-01T18:19:21.830Z,97.80
2018-01-01T18:21:22.809Z,97.40
2018-01-01T18:23:23.767Z,97.90
2018-01-01T18:25:24.728Z,98.00
2018-01-01T18:27:26.458Z,98.00
2018-01-01T18:29:27.425Z,98.00
2018-01-01T18:31:28.431Z,97.90
2018-01-01T18:33:29.368Z,98.40
2018-01-01T18:35:30.306Z,98.00
2018-01-01T18:37:31.293Z,98.20
2018-01-01T18:39:32.275Z,98.40
2018-01-01T18:41:33.281Z,98.30
2018-01-01T18:43:34.248Z,98.30
2018-01-01T18:45:35.210Z,98.10
2018-01-01T18:47:36.936Z,98.60
2018-01-01T18:49:37.907Z,98.50
2018-01-01T18:51:39.615Z,98.60
2018-01-01T18:53:40.560Z,98.60
2018-01-01T18:55:41.516Z,98.80
2018-01-01T18:57:42.498Z,98.30
2018-01-01T18:59:43.506Z,98.00
2018-01-01T19:01:45.458Z,98.50
2018-01-01T19:03:46.429Z,98.70
2018-01-01T19:05:47.367Z,98.90
2018-01-01T19:07:48.314Z,98.90
2018-01-01T19:09:49.286Z,98.70
2018-01-01T19:11:50.243Z,98.90
2018-01-01T19:13:51.216Z,98.70
2018-01-01T19:15:52.895Z,98.90
2018-01-01T19:17:53.892Z,98.90
2018-01-01T19:19:54.862Z,99.10
2018-01-01T19:21:56.597Z,99.00
2018-01-01T19:23:57.591Z,99.00
2018-01-01T19:25:58.569Z,99.30
2018-01-01T19:27:59.529Z,99.90
2018-01-01T19:30:00.465Z,99.70
2018-01-01T19:32:01.410Z,99.90
2018-01-01T19:34:02.420Z,99.90
2018-01-01T19:36:03.394Z,99.90
2018-01-01T19:38:04.359Z,99.90
2018-01-01T19:40:05.319Z,99.90
2018-01-01T19:42:06.306Z,99.90
2018-01-01T19:44:07.278Z,99.90
2018-01-01T19:46:08.228Z,99.90
2018-01-01T19:48:09.231Z,99.90
2018-01-01T19:50:10.985Z,99.90
2018-01-01T19:52:12.755Z,99.90
2018-01-01T19:54:14.492Z,99.90
2018-01-01T19:56:15.511Z,99.80
2018-01-01T19:58:16.526Z,99.90
2018-01-01T20:00:17.526Z,99.90
2018-01-01T20:02:18.500Z,99.90
2018-01-01T20:04:20.255Z,99.90
2018-01-01T20:06:21.296Z,99.90
2018-01-01T20:08:22.309Z,99.90
2018-01-01T20:10:23.372Z,99.90
2018-01-01T20:12:24.394Z,99.90
2018-01-01T20:14:25.394Z,99.90
2018-01-01T20:16:26.371Z,99.90
2018-01-01T20:18:27.417Z,99.90
2018-01-01T20:20:28.421Z,99.90
2018-01-01T20:22:29.371Z,99.90
2018-01-01T20:24:30.347Z,99.90
2018-01-01T20:26:31.310Z,99.90
2018-01-01T20:28:32.324Z,99.90
2018-01-01T20:30:34.053Z,99.90
2018-01-01T20:32:35.069Z,99.90
2018-01-01T20:34:36.038Z,99.90
2018-01-01T20:36:36.997Z,99.90
2018-01-01T20:38:38.003Z,99.90
2018-01-01T20:40:39.012Z,99.90
2018-01-01T20:42:39.992Z,99.90
2018-01-01T20:44:40.936Z,99.90
2018-01-01T20:46:41.970Z,99.90
2018-01-01T20:48:43.716Z,99.90
2018-01-01T20:50:44.691Z,99.90
2018-01-01T20:52:45.658Z,99.90
2018-01-01T20:54:46.641Z,99.90
2018-01-01T20:56:47.613Z,99.90
2018-01-01T20:58:48.572Z,99.90
2018-01-01T21:00:49.532Z,99.90
2018-01-01T21:02:51.279Z,99.90
2018-01-01T21:04:52.286Z,99.90
2018-01-01T21:06:54.028Z,99.90
2018-01-01T21:08:54.965Z,99.90
2018-01-01T21:10:56.673Z,99.90
2018-01-01T21:12:57.603Z,99.90
2018-01-01T21:14:58.575Z,99.90
2018-01-01T21:16:59.562Z,99.90
2018-01-01T21:19:01.238Z,99.90
2018-01-01T21:21:02.190Z,99.90
2018-01-01T21:23:03.151Z,99.90
2018-01-01T21:25:04.113Z,99.90
2018-01-01T21:27:06.126Z,99.90
2018-01-01T21:29:07.911Z,99.90
2018-01-01T21:31:08.999Z,99.90
2018-01-01T21:33:12.087Z,99.90
2018-01-01T21:35:13.038Z,99.90
2018-01-01T21:37:14.014Z,99.90
2018-01-01T21:39:14.965Z,99.90
2018-01-01T21:41:16.690Z,99.90
2018-01-01T21:43:17.687Z,99.90
2018-01-01T21:45:19.430Z,99.90
2018-01-01T21:47:21.194Z,99.90
2018-01-01T21:49:22.269Z,99.90
2018-01-01T21:51:23.311Z,99.90
2018-01-01T21:53:25.061Z,99.90
2018-01-01T21:55:29.210Z,99.90
2018-01-01T21:57:31.289Z,99.90
2018-01-01T21:59:32.339Z,99.90
2018-01-01T22:01:33.350Z,99.90
2018-01-01T22:03:34.378Z,99.90
2018-01-01T22:05:35.312Z,99.90
2018-01-01T22:07:36.283Z,99.90
2018-01-01T22:09:37.252Z,99.90
2018-01-01T22:11:38.257Z,99.90
2018-01-01T22:13:39.238Z,99.90
2018-01-01T22:15:41.014Z,99.90
2018-01-01T22:17:42.042Z,99.90
2018-01-01T22:19:43.022Z,99.90
2018-01-01T22:21:44.087Z,99.90
2018-01-01T22:23:45.170Z,99.90
2018-01-01T22:25:46.115Z,99.90
2018-01-01T22:27:47.102Z,99.90
2018-01-01T22:29:48.824Z,99.90
2018-01-01T22:31:49.813Z,99.90
2018-01-01T22:33:50.838Z,99.90
2018-01-01T22:35:52.535Z,99.90
2018-01-01T22:37:53.565Z,99.90
2018-01-01T22:39:55.286Z,99.90
2018-01-01T22:41:56.249Z,99.90
2018-01-01T22:43:57.266Z,99.90
2018-01-01T22:45:58.250Z,99.90
2018-01-01T22:47:59.193Z,99.90
2018-01-01T22:50:00.253Z,99.90
2018-01-01T22:52:01.222Z,99.90
2018-01-01T22:54:02.206Z,99.90
2018-01-01T22:56:03.163Z,99.90
2018-01-01T22:58:04.216Z,99.90
2018-01-01T23:00:05.222Z,99.90
2018-01-01T23:02:06.268Z,99.90
2018-01-01T23:04:07.223Z,99.90
2018-01-01T23:06:08.233Z,99.90
2018-01-01T23:08:09.394Z,99.90
2018-01-01T23:10:10.388Z,99.90
2018-01-01T23:12:11.358Z,99.90
2018-01-01T23:14:12.421Z,99.90
2018-01-01T23:16:13.398Z,99.90
2018-01-01T23:18:14.373Z,99.90
2018-01-01T23:20:15.366Z,99.90
2018-01-01T23:22:16.379Z,99.90
2018-01-01T23:24:17.407Z,99.90
2018-01-01T23:26:18.381Z,99.90
2018-01-01T23:28:19.345Z,99.90
2018-01-01T23:30:21.087Z,99.90
2018-01-01T23:32:22.861Z,99.90
2018-01-01T23:34:24.625Z,99.90
2018-01-01T23:36:25.578Z,99.90
2018-01-01T23:38:26.542Z,99.90
2018-01-01T23:40:28.254Z,99.90
2018-01-01T23:42:29.259Z,99.90
2018-01-01T23:44:30.326Z,99.90
2018-01-01T23:46:31.320Z,99.90
2018-01-01T23:48:32.318Z,99.90
2018-01-01T23:50:33.248Z,99.90
2018-01-01T23:52:34.320Z,99.90
2018-01-01T23:54:35.295Z,99.90
2018-01-01T23:56:36.267Z,99.90
2018-01-01T23:58:37.298Z,99.90
